sensor_id;sensor_type;location;lat;lon;timestamp;P1;durP1;ratioP1;P2;durP2;ratioP2
37777;SDS011;23615;51.506;7.678;2024-03-23T00:53:02;7.90;;;2.90;;
37777;SDS011;23615;51.506;7.678;2024-03-23T00:55:27;13.00;;;2.97;;
37777;SDS011;23615;51.506;7.678;2024-03-23T00:57:53;12.97;;;2.83;;
37777;SDS011;23615;51.506;7.678;2024-03-23T01:00:18;13.03;;;3.30;;
37777;SDS011;23615;51.506;7.678;2024-03-23T01:02:43;14.17;;;3.10;;
37777;SDS011;23615;51.506;7.678;2024-03-23T01:05:09;13.60;;;3.30;;
37777;SDS011;23615;51.506;7.678;2024-03-23T01:07:34;9.07;;;3.47;;
37777;SDS011;23615;51.506;7.678;2024-03-23T01:09:59;10.52;;;3.03;;
37777;SDS011;23615;51.506;7.678;2024-03-23T01:12:24;11.60;;;3.47;;
37777;SDS011;23615;51.506;7.678;2024-03-23T01:14:50;11.70;;;3.40;;
37777;SDS011;23615;51.506;7.678;2024-03-23T01:17:15;14.67;;;3.50;;
37777;SDS011;23615;51.506;7.678;2024-03-23T01:19:40;12.53;;;3.20;;
37777;SDS011;23615;51.506;7.678;2024-03-23T01:22:06;10.17;;;2.43;;
37777;SDS011;23615;51.506;7.678;2024-03-23T01:24:32;9.07;;;3.58;;
37777;SDS011;23615;51.506;7.678;2024-03-23T01:26:57;9.67;;;2.63;;
37777;SDS011;23615;51.506;7.678;2024-03-23T01:29:22;10.17;;;2.40;;
37777;SDS011;23615;51.506;7.678;2024-03-23T01:31:48;7.70;;;2.30;;
37777;SDS011;23615;51.506;7.678;2024-03-23T01:34:13;9.13;;;2.40;;
37777;SDS011;23615;51.506;7.678;2024-03-23T01:36:39;8.90;;;2.23;;
37777;SDS011;23615;51.506;7.678;2024-03-23T01:39:04;6.63;;;2.33;;
37777;SDS011;23615;51.506;7.678;2024-03-23T01:41:30;8.17;;;2.03;;
37777;SDS011;23615;51.506;7.678;2024-03-23T01:43:55;7.20;;;1.70;;
37777;SDS011;23615;51.506;7.678;2024-03-23T01:46:21;11.50;;;2.42;;
37777;SDS011;23615;51.506;7.678;2024-03-23T01:48:47;8.73;;;2.38;;
37777;SDS011;23615;51.506;7.678;2024-03-23T01:51:12;9.65;;;2.22;;
37777;SDS011;23615;51.506;7.678;2024-03-23T01:53:39;7.47;;;1.85;;
37777;SDS011;23615;51.506;7.678;2024-03-23T01:56:04;6.03;;;1.60;;
37777;SDS011;23615;51.506;7.678;2024-03-23T01:58:30;4.93;;;2.10;;
37777;SDS011;23615;51.506;7.678;2024-03-23T02:00:57;9.25;;;2.15;;
37777;SDS011;23615;51.506;7.678;2024-03-23T02:03:23;7.53;;;2.00;;
37777;SDS011;23615;51.506;7.678;2024-03-23T02:05:52;7.85;;;2.28;;
37777;SDS011;23615;51.506;7.678;2024-03-23T02:08:19;7.97;;;2.60;;
37777;SDS011;23615;51.506;7.678;2024-03-23T02:10:46;6.15;;;2.30;;
37777;SDS011;23615;51.506;7.678;2024-03-23T02:13:14;8.38;;;2.38;;
37777;SDS011;23615;51.506;7.678;2024-03-23T02:15:39;7.63;;;2.25;;
37777;SDS011;23615;51.506;7.678;2024-03-23T02:18:05;10.00;;;2.57;;
37777;SDS011;23615;51.506;7.678;2024-03-23T02:20:31;7.60;;;2.67;;
37777;SDS011;23615;51.506;7.678;2024-03-23T02:22:59;9.15;;;2.45;;
37777;SDS011;23615;51.506;7.678;2024-03-23T02:25:24;7.13;;;2.00;;
37777;SDS011;23615;51.506;7.678;2024-03-23T02:27:49;5.97;;;2.00;;
37777;SDS011;23615;51.506;7.678;2024-03-23T02:30:15;6.43;;;1.57;;
37777;SDS011;23615;51.506;7.678;2024-03-23T02:32:40;5.90;;;1.40;;
37777;SDS011;23615;51.506;7.678;2024-03-23T02:35:05;5.87;;;1.37;;
37777;SDS011;23615;51.506;7.678;2024-03-23T02:37:31;4.60;;;0.70;;
37777;SDS011;23615;51.506;7.678;2024-03-23T02:39:57;3.60;;;0.90;;
37777;SDS011;23615;51.506;7.678;2024-03-23T02:42:23;4.47;;;0.93;;
37777;SDS011;23615;51.506;7.678;2024-03-23T02:44:48;5.87;;;0.70;;
37777;SDS011;23615;51.506;7.678;2024-03-23T02:47:13;3.77;;;0.70;;
37777;SDS011;23615;51.506;7.678;2024-03-23T02:49:38;2.35;;;0.65;;
37777;SDS011;23615;51.506;7.678;2024-03-23T02:52:04;3.17;;;0.80;;
37777;SDS011;23615;51.506;7.678;2024-03-23T02:54:29;2.47;;;0.73;;
37777;SDS011;23615;51.506;7.678;2024-03-23T02:56:54;4.20;;;0.80;;
37777;SDS011;23615;51.506;7.678;2024-03-23T02:59:20;5.10;;;0.97;;
37777;SDS011;23615;51.506;7.678;2024-03-23T03:01:45;3.57;;;0.90;;
37777;SDS011;23615;51.506;7.678;2024-03-23T03:04:10;5.97;;;1.30;;
37777;SDS011;23615;51.506;7.678;2024-03-23T03:06:35;4.23;;;0.70;;
37777;SDS011;23615;51.506;7.678;2024-03-23T03:09:01;3.23;;;0.73;;
37777;SDS011;23615;51.506;7.678;2024-03-23T03:11:26;4.13;;;0.87;;
37777;SDS011;23615;51.506;7.678;2024-03-23T03:13:51;5.03;;;1.10;;
37777;SDS011;23615;51.506;7.678;2024-03-23T03:16:17;3.70;;;1.00;;
37777;SDS011;23615;51.506;7.678;2024-03-23T03:18:42;4.87;;;1.00;;
37777;SDS011;23615;51.506;7.678;2024-03-23T03:21:08;3.33;;;0.73;;
37777;SDS011;23615;51.506;7.678;2024-03-23T03:23:39;4.18;;;1.08;;
37777;SDS011;23615;51.506;7.678;2024-03-23T03:26:04;2.78;;;0.88;;
37777;SDS011;23615;51.506;7.678;2024-03-23T03:28:33;6.23;;;0.83;;
37777;SDS011;23615;51.506;7.678;2024-03-23T03:30:59;4.22;;;0.77;;
37777;SDS011;23615;51.506;7.678;2024-03-23T03:33:26;5.20;;;0.70;;
37777;SDS011;23615;51.506;7.678;2024-03-23T03:35:51;3.17;;;0.90;;
37777;SDS011;23615;51.506;7.678;2024-03-23T03:38:17;3.67;;;0.87;;
37777;SDS011;23615;51.506;7.678;2024-03-23T03:40:43;4.43;;;1.00;;
37777;SDS011;23615;51.506;7.678;2024-03-23T03:43:08;4.77;;;0.70;;
37777;SDS011;23615;51.506;7.678;2024-03-23T03:45:34;3.73;;;0.63;;
37777;SDS011;23615;51.506;7.678;2024-03-23T03:47:59;3.40;;;0.53;;
37777;SDS011;23615;51.506;7.678;2024-03-23T03:50:24;3.87;;;0.43;;
37777;SDS011;23615;51.506;7.678;2024-03-23T03:52:50;2.83;;;0.50;;
37777;SDS011;23615;51.506;7.678;2024-03-23T03:55:15;1.30;;;0.40;;
37777;SDS011;23615;51.506;7.678;2024-03-23T03:57:41;0.60;;;0.20;;
37777;SDS011;23615;51.506;7.678;2024-03-23T04:00:06;1.93;;;0.60;;
37777;SDS011;23615;51.506;7.678;2024-03-23T04:02:36;4.32;;;0.80;;
37777;SDS011;23615;51.506;7.678;2024-03-23T04:05:01;4.30;;;0.88;;
37777;SDS011;23615;51.506;7.678;2024-03-23T04:07:28;4.63;;;0.97;;
37777;SDS011;23615;51.506;7.678;2024-03-23T04:09:53;4.45;;;0.82;;
37777;SDS011;23615;51.506;7.678;2024-03-23T04:12:19;4.97;;;0.75;;
37777;SDS011;23615;51.506;7.678;2024-03-23T04:14:45;5.50;;;0.73;;
37777;SDS011;23615;51.506;7.678;2024-03-23T04:17:10;4.93;;;0.90;;
37777;SDS011;23615;51.506;7.678;2024-03-23T04:19:35;4.77;;;0.60;;
37777;SDS011;23615;51.506;7.678;2024-03-23T04:22:01;3.90;;;0.70;;
37777;SDS011;23615;51.506;7.678;2024-03-23T04:24:26;3.23;;;0.83;;
37777;SDS011;23615;51.506;7.678;2024-03-23T04:26:51;4.13;;;0.70;;
37777;SDS011;23615;51.506;7.678;2024-03-23T04:29:17;4.30;;;1.10;;
37777;SDS011;23615;51.506;7.678;2024-03-23T04:31:42;4.77;;;0.83;;
37777;SDS011;23615;51.506;7.678;2024-03-23T04:34:07;4.13;;;0.60;;
37777;SDS011;23615;51.506;7.678;2024-03-23T04:36:33;2.87;;;0.70;;
37777;SDS011;23615;51.506;7.678;2024-03-23T04:38:59;3.75;;;0.57;;
37777;SDS011;23615;51.506;7.678;2024-03-23T04:41:25;3.88;;;0.60;;
37777;SDS011;23615;51.506;7.678;2024-03-23T04:43:50;6.17;;;1.13;;
37777;SDS011;23615;51.506;7.678;2024-03-23T04:46:16;4.87;;;0.60;;
37777;SDS011;23615;51.506;7.678;2024-03-23T04:48:41;3.37;;;0.80;;
37777;SDS011;23615;51.506;7.678;2024-03-23T04:51:09;5.43;;;0.80;;
37777;SDS011;23615;51.506;7.678;2024-03-23T04:53:34;2.70;;;0.55;;
37777;SDS011;23615;51.506;7.678;2024-03-23T04:56:00;4.03;;;0.60;;
37777;SDS011;23615;51.506;7.678;2024-03-23T04:58:25;6.60;;;1.10;;
37777;SDS011;23615;51.506;7.678;2024-03-23T05:00:54;3.57;;;0.80;;
37777;SDS011;23615;51.506;7.678;2024-03-23T05:03:20;5.90;;;0.98;;
37777;SDS011;23615;51.506;7.678;2024-03-23T05:05:46;6.95;;;0.88;;
37777;SDS011;23615;51.506;7.678;2024-03-23T05:08:12;2.22;;;0.75;;
37777;SDS011;23615;51.506;7.678;2024-03-23T05:10:37;7.15;;;1.45;;
37777;SDS011;23615;51.506;7.678;2024-03-23T05:13:03;4.80;;;0.93;;
37777;SDS011;23615;51.506;7.678;2024-03-23T05:15:28;3.93;;;0.67;;
37777;SDS011;23615;51.506;7.678;2024-03-23T05:17:54;4.57;;;1.17;;
37777;SDS011;23615;51.506;7.678;2024-03-23T05:20:20;3.13;;;0.73;;
37777;SDS011;23615;51.506;7.678;2024-03-23T05:22:45;3.40;;;0.63;;
37777;SDS011;23615;51.506;7.678;2024-03-23T05:25:11;6.20;;;1.20;;
37777;SDS011;23615;51.506;7.678;2024-03-23T05:27:37;6.47;;;1.20;;
37777;SDS011;23615;51.506;7.678;2024-03-23T05:30:02;3.10;;;0.83;;
37777;SDS011;23615;51.506;7.678;2024-03-23T05:32:28;7.67;;;1.30;;
37777;SDS011;23615;51.506;7.678;2024-03-23T05:34:54;4.68;;;1.27;;
37777;SDS011;23615;51.506;7.678;2024-03-23T05:37:24;8.50;;;0.97;;
37777;SDS011;23615;51.506;7.678;2024-03-23T05:39:50;3.92;;;1.08;;
37777;SDS011;23615;51.506;7.678;2024-03-23T05:42:16;6.07;;;1.40;;
37777;SDS011;23615;51.506;7.678;2024-03-23T05:44:43;4.68;;;0.95;;
37777;SDS011;23615;51.506;7.678;2024-03-23T05:47:09;7.10;;;1.20;;
37777;SDS011;23615;51.506;7.678;2024-03-23T05:49:34;5.47;;;1.20;;
37777;SDS011;23615;51.506;7.678;2024-03-23T05:52:00;6.22;;;1.55;;
37777;SDS011;23615;51.506;7.678;2024-03-23T05:54:27;7.88;;;1.60;;
37777;SDS011;23615;51.506;7.678;2024-03-23T05:56:54;7.70;;;1.60;;
37777;SDS011;23615;51.506;7.678;2024-03-23T05:59:20;6.78;;;1.73;;
37777;SDS011;23615;51.506;7.678;2024-03-23T06:01:46;7.47;;;1.70;;
37777;SDS011;23615;51.506;7.678;2024-03-23T06:04:12;5.40;;;1.67;;
37777;SDS011;23615;51.506;7.678;2024-03-23T06:06:38;10.68;;;1.90;;
37777;SDS011;23615;51.506;7.678;2024-03-23T06:09:04;9.88;;;1.75;;
37777;SDS011;23615;51.506;7.678;2024-03-23T06:11:29;7.70;;;2.00;;
37777;SDS011;23615;51.506;7.678;2024-03-23T06:13:55;7.17;;;2.07;;
37777;SDS011;23615;51.506;7.678;2024-03-23T06:16:21;9.45;;;2.35;;
37777;SDS011;23615;51.506;7.678;2024-03-23T06:18:50;8.30;;;3.03;;
37777;SDS011;23615;51.506;7.678;2024-03-23T06:21:15;9.30;;;3.00;;
37777;SDS011;23615;51.506;7.678;2024-03-23T06:23:41;6.80;;;3.50;;
37777;SDS011;23615;51.506;7.678;2024-03-23T06:26:07;9.68;;;4.22;;
37777;SDS011;23615;51.506;7.678;2024-03-23T06:28:32;11.43;;;4.73;;
37777;SDS011;23615;51.506;7.678;2024-03-23T06:30:57;9.20;;;4.40;;
37777;SDS011;23615;51.506;7.678;2024-03-23T06:33:22;8.20;;;5.30;;
37777;SDS011;23615;51.506;7.678;2024-03-23T06:35:51;10.27;;;5.68;;
37777;SDS011;23615;51.506;7.678;2024-03-23T06:38:17;11.02;;;5.07;;
37777;SDS011;23615;51.506;7.678;2024-03-23T06:40:43;10.10;;;5.40;;
37777;SDS011;23615;51.506;7.678;2024-03-23T06:43:12;12.05;;;5.97;;
37777;SDS011;23615;51.506;7.678;2024-03-23T06:45:38;14.00;;;6.68;;
37777;SDS011;23615;51.506;7.678;2024-03-23T06:48:03;12.97;;;6.23;;
37777;SDS011;23615;51.506;7.678;2024-03-23T06:50:29;14.03;;;7.27;;
37777;SDS011;23615;51.506;7.678;2024-03-23T06:52:54;11.90;;;7.87;;
37777;SDS011;23615;51.506;7.678;2024-03-23T06:55:19;15.60;;;8.33;;
37777;SDS011;23615;51.506;7.678;2024-03-23T06:57:45;21.90;;;10.87;;
37777;SDS011;23615;51.506;7.678;2024-03-23T07:00:10;17.37;;;9.70;;
37777;SDS011;23615;51.506;7.678;2024-03-23T07:02:38;19.17;;;11.00;;
37777;SDS011;23615;51.506;7.678;2024-03-23T07:05:03;18.87;;;11.47;;
37777;SDS011;23615;51.506;7.678;2024-03-23T07:07:29;18.00;;;11.35;;
37777;SDS011;23615;51.506;7.678;2024-03-23T07:09:55;19.10;;;11.75;;
37777;SDS011;23615;51.506;7.678;2024-03-23T07:12:20;19.03;;;12.53;;
37777;SDS011;23615;51.506;7.678;2024-03-23T07:14:46;21.50;;;12.83;;
37777;SDS011;23615;51.506;7.678;2024-03-23T07:17:11;20.27;;;12.93;;
37777;SDS011;23615;51.506;7.678;2024-03-23T07:19:36;20.73;;;13.07;;
37777;SDS011;23615;51.506;7.678;2024-03-23T07:22:01;22.70;;;13.50;;
37777;SDS011;23615;51.506;7.678;2024-03-23T07:24:27;20.23;;;13.63;;
37777;SDS011;23615;51.506;7.678;2024-03-23T07:26:52;21.20;;;13.47;;
37777;SDS011;23615;51.506;7.678;2024-03-23T07:29:19;22.15;;;13.95;;
37777;SDS011;23615;51.506;7.678;2024-03-23T07:31:44;19.80;;;13.20;;
37777;SDS011;23615;51.506;7.678;2024-03-23T07:34:10;22.43;;;14.07;;
37777;SDS011;23615;51.506;7.678;2024-03-23T07:36:35;24.57;;;13.60;;
37777;SDS011;23615;51.506;7.678;2024-03-23T07:39:00;24.27;;;14.50;;
37777;SDS011;23615;51.506;7.678;2024-03-23T07:41:25;23.52;;;14.30;;
37777;SDS011;23615;51.506;7.678;2024-03-23T07:43:53;23.85;;;14.10;;
37777;SDS011;23615;51.506;7.678;2024-03-23T07:46:20;23.65;;;13.93;;
37777;SDS011;23615;51.506;7.678;2024-03-23T07:48:46;28.48;;;13.63;;
37777;SDS011;23615;51.506;7.678;2024-03-23T07:51:21;23.03;;;14.57;;
37777;SDS011;23615;51.506;7.678;2024-03-23T07:53:47;20.65;;;13.85;;
37777;SDS011;23615;51.506;7.678;2024-03-23T07:56:13;23.83;;;15.18;;
37777;SDS011;23615;51.506;7.678;2024-03-23T07:58:40;19.45;;;14.70;;
37777;SDS011;23615;51.506;7.678;2024-03-23T08:01:10;22.25;;;14.52;;
37777;SDS011;23615;51.506;7.678;2024-03-23T08:03:37;23.13;;;13.98;;
37777;SDS011;23615;51.506;7.678;2024-03-23T08:06:11;22.38;;;12.30;;
37777;SDS011;23615;51.506;7.678;2024-03-23T08:08:37;18.20;;;13.40;;
37777;SDS011;23615;51.506;7.678;2024-03-23T08:11:02;23.30;;;14.18;;
37777;SDS011;23615;51.506;7.678;2024-03-23T08:13:29;19.07;;;13.33;;
37777;SDS011;23615;51.506;7.678;2024-03-23T08:15:58;20.23;;;13.17;;
37777;SDS011;23615;51.506;7.678;2024-03-23T08:18:25;17.13;;;12.55;;
37777;SDS011;23615;51.506;7.678;2024-03-23T08:21:00;22.20;;;13.23;;
37777;SDS011;23615;51.506;7.678;2024-03-23T08:23:28;20.88;;;12.73;;
37777;SDS011;23615;51.506;7.678;2024-03-23T08:25:57;23.50;;;12.38;;
37777;SDS011;23615;51.506;7.678;2024-03-23T08:28:23;16.13;;;11.45;;
37777;SDS011;23615;51.506;7.678;2024-03-23T08:30:48;16.40;;;11.03;;
37777;SDS011;23615;51.506;7.678;2024-03-23T08:33:14;18.00;;;10.93;;
37777;SDS011;23615;51.506;7.678;2024-03-23T08:35:39;18.27;;;10.35;;
37777;SDS011;23615;51.506;7.678;2024-03-23T08:38:05;17.33;;;10.70;;
37777;SDS011;23615;51.506;7.678;2024-03-23T08:40:31;15.53;;;10.37;;
37777;SDS011;23615;51.506;7.678;2024-03-23T08:42:56;15.23;;;9.40;;
37777;SDS011;23615;51.506;7.678;2024-03-23T08:45:21;18.80;;;9.83;;
37777;SDS011;23615;51.506;7.678;2024-03-23T08:47:47;17.70;;;9.00;;
37777;SDS011;23615;51.506;7.678;2024-03-23T08:50:12;15.60;;;10.23;;
37777;SDS011;23615;51.506;7.678;2024-03-23T08:52:37;16.47;;;9.50;;
37777;SDS011;23615;51.506;7.678;2024-03-23T08:55:03;14.83;;;9.17;;
37777;SDS011;23615;51.506;7.678;2024-03-23T08:57:29;13.03;;;7.87;;
37777;SDS011;23615;51.506;7.678;2024-03-23T08:59:54;13.30;;;7.45;;
37777;SDS011;23615;51.506;7.678;2024-03-23T09:02:20;10.77;;;6.28;;
37777;SDS011;23615;51.506;7.678;2024-03-23T09:04:45;13.23;;;6.40;;
37777;SDS011;23615;51.506;7.678;2024-03-23T09:07:10;10.40;;;6.10;;
37777;SDS011;23615;51.506;7.678;2024-03-23T09:09:38;11.30;;;6.93;;
37777;SDS011;23615;51.506;7.678;2024-03-23T09:12:04;9.30;;;6.25;;
37777;SDS011;23615;51.506;7.678;2024-03-23T09:14:29;11.63;;;5.13;;
37777;SDS011;23615;51.506;7.678;2024-03-23T09:16:54;9.57;;;5.63;;
37777;SDS011;23615;51.506;7.678;2024-03-23T09:19:20;9.27;;;6.50;;
37777;SDS011;23615;51.506;7.678;2024-03-23T09:21:45;9.40;;;4.77;;
37777;SDS011;23615;51.506;7.678;2024-03-23T09:24:10;12.13;;;5.23;;
37777;SDS011;23615;51.506;7.678;2024-03-23T09:26:36;10.80;;;4.68;;
37777;SDS011;23615;51.506;7.678;2024-03-23T09:29:01;10.33;;;4.40;;
37777;SDS011;23615;51.506;7.678;2024-03-23T09:31:26;8.53;;;3.90;;
37777;SDS011;23615;51.506;7.678;2024-03-23T09:33:52;9.77;;;4.50;;
37777;SDS011;23615;51.506;7.678;2024-03-23T09:36:17;8.57;;;3.75;;
37777;SDS011;23615;51.506;7.678;2024-03-23T09:38:43;10.65;;;4.07;;
37777;SDS011;23615;51.506;7.678;2024-03-23T09:41:08;10.13;;;4.53;;
37777;SDS011;23615;51.506;7.678;2024-03-23T09:43:34;6.20;;;3.20;;
37777;SDS011;23615;51.506;7.678;2024-03-23T09:46:01;9.53;;;3.37;;
37777;SDS011;23615;51.506;7.678;2024-03-23T09:48:27;6.37;;;2.93;;
37777;SDS011;23615;51.506;7.678;2024-03-23T09:50:53;6.93;;;2.73;;
37777;SDS011;23615;51.506;7.678;2024-03-23T09:53:18;7.07;;;2.03;;
37777;SDS011;23615;51.506;7.678;2024-03-23T09:55:44;4.30;;;2.27;;
37777;SDS011;23615;51.506;7.678;2024-03-23T09:58:13;5.05;;;1.95;;
37777;SDS011;23615;51.506;7.678;2024-03-23T10:00:40;7.80;;;2.10;;
37777;SDS011;23615;51.506;7.678;2024-03-23T10:03:05;4.07;;;1.58;;
37777;SDS011;23615;51.506;7.678;2024-03-23T10:05:32;4.57;;;1.50;;
37777;SDS011;23615;51.506;7.678;2024-03-23T10:08:16;5.00;;;1.20;;
37777;SDS011;23615;51.506;7.678;2024-03-23T10:10:43;5.30;;;0.90;;
37777;SDS011;23615;51.506;7.678;2024-03-23T10:13:10;3.90;;;1.47;;
37777;SDS011;23615;51.506;7.678;2024-03-23T10:15:37;5.95;;;1.45;;
37777;SDS011;23615;51.506;7.678;2024-03-23T10:20:40;3.28;;;1.13;;
37777;SDS011;23615;51.506;7.678;2024-03-23T10:23:06;4.67;;;1.23;;
37777;SDS011;23615;51.506;7.678;2024-03-23T10:25:41;6.17;;;1.63;;
37777;SDS011;23615;51.506;7.678;2024-03-23T10:28:06;8.70;;;1.97;;
37777;SDS011;23615;51.506;7.678;2024-03-23T10:30:31;5.93;;;2.07;;
37777;SDS011;23615;51.506;7.678;2024-03-23T10:33:15;7.90;;;3.07;;
37777;SDS011;23615;51.506;7.678;2024-03-23T10:35:42;6.82;;;2.60;;
37777;SDS011;23615;51.506;7.678;2024-03-23T10:38:08;4.50;;;2.50;;
37777;SDS011;23615;51.506;7.678;2024-03-23T10:40:34;6.90;;;2.20;;
37777;SDS011;23615;51.506;7.678;2024-03-23T10:43:00;4.95;;;2.80;;
37777;SDS011;23615;51.506;7.678;2024-03-23T10:45:27;6.10;;;2.58;;
37777;SDS011;23615;51.506;7.678;2024-03-23T10:47:53;5.07;;;2.50;;
37777;SDS011;23615;51.506;7.678;2024-03-23T10:50:18;4.53;;;1.90;;
37777;SDS011;23615;51.506;7.678;2024-03-23T10:52:45;3.90;;;2.20;;
37777;SDS011;23615;51.506;7.678;2024-03-23T10:55:12;6.20;;;2.30;;
37777;SDS011;23615;51.506;7.678;2024-03-23T10:57:41;9.25;;;2.13;;
37777;SDS011;23615;51.506;7.678;2024-03-23T11:00:10;6.50;;;2.30;;
37777;SDS011;23615;51.506;7.678;2024-03-23T11:02:36;4.22;;;1.30;;
37777;SDS011;23615;51.506;7.678;2024-03-23T11:05:02;6.43;;;1.60;;
37777;SDS011;23615;51.506;7.678;2024-03-23T11:07:53;4.17;;;1.03;;
37777;SDS011;23615;51.506;7.678;2024-03-23T11:12:58;5.78;;;1.05;;
37777;SDS011;23615;51.506;7.678;2024-03-23T11:15:43;2.30;;;0.77;;
37777;SDS011;23615;51.506;7.678;2024-03-23T11:18:08;5.50;;;1.07;;
37777;SDS011;23615;51.506;7.678;2024-03-23T11:20:34;4.77;;;1.30;;
37777;SDS011;23615;51.506;7.678;2024-03-23T11:23:00;6.40;;;1.08;;
37777;SDS011;23615;51.506;7.678;2024-03-23T11:25:26;2.97;;;1.30;;
37777;SDS011;23615;51.506;7.678;2024-03-23T11:27:53;4.40;;;1.20;;
37777;SDS011;23615;51.506;7.678;2024-03-23T11:30:20;4.75;;;0.98;;
37777;SDS011;23615;51.506;7.678;2024-03-23T11:32:54;6.13;;;1.30;;
37777;SDS011;23615;51.506;7.678;2024-03-23T11:35:33;3.67;;;0.40;;
37777;SDS011;23615;51.506;7.678;2024-03-23T11:40:30;2.83;;;0.40;;
37777;SDS011;23615;51.506;7.678;2024-03-23T11:43:07;0.63;;;0.08;;
37777;SDS011;23615;51.506;7.678;2024-03-23T11:45:38;1.38;;;0.10;;
37777;SDS011;23615;51.506;7.678;2024-03-23T11:48:08;1.02;;;0.10;;
37777;SDS011;23615;51.506;7.678;2024-03-23T11:50:41;0.70;;;0.10;;
37777;SDS011;23615;51.506;7.678;2024-03-23T11:56:19;1.23;;;0.10;;
37777;SDS011;23615;51.506;7.678;2024-03-23T11:58:26;4.65;;;0.40;;
37777;SDS011;23615;51.506;7.678;2024-03-23T12:00:58;1.58;;;0.20;;
37777;SDS011;23615;51.506;7.678;2024-03-23T12:03:25;2.08;;;0.30;;
37777;SDS011;23615;51.506;7.678;2024-03-23T12:06:01;2.33;;;0.20;;
37777;SDS011;23615;51.506;7.678;2024-03-23T12:08:36;1.05;;;0.20;;
37777;SDS011;23615;51.506;7.678;2024-03-23T12:11:16;1.20;;;0.20;;
37777;SDS011;23615;51.506;7.678;2024-03-23T12:13:42;2.03;;;0.20;;
37777;SDS011;23615;51.506;7.678;2024-03-23T12:18:37;3.15;;;0.45;;
37777;SDS011;23615;51.506;7.678;2024-03-23T12:21:05;2.05;;;0.40;;
37777;SDS011;23615;51.506;7.678;2024-03-23T12:23:30;2.22;;;0.32;;
37777;SDS011;23615;51.506;7.678;2024-03-23T12:25:55;3.00;;;1.10;;
37777;SDS011;23615;51.506;7.678;2024-03-23T12:28:21;2.20;;;0.40;;
37777;SDS011;23615;51.506;7.678;2024-03-23T12:30:46;3.63;;;0.30;;
37777;SDS011;23615;51.506;7.678;2024-03-23T12:33:11;2.37;;;0.40;;
37777;SDS011;23615;51.506;7.678;2024-03-23T12:35:37;3.37;;;0.40;;
37777;SDS011;23615;51.506;7.678;2024-03-23T12:38:02;1.60;;;0.63;;
37777;SDS011;23615;51.506;7.678;2024-03-23T12:40:27;3.93;;;0.60;;
37777;SDS011;23615;51.506;7.678;2024-03-23T12:42:53;2.80;;;0.70;;
37777;SDS011;23615;51.506;7.678;2024-03-23T12:45:19;1.90;;;0.50;;
37777;SDS011;23615;51.506;7.678;2024-03-23T12:47:44;4.03;;;0.90;;
37777;SDS011;23615;51.506;7.678;2024-03-23T12:50:09;2.13;;;0.80;;
37777;SDS011;23615;51.506;7.678;2024-03-23T12:52:35;3.97;;;0.63;;
37777;SDS011;23615;51.506;7.678;2024-03-23T12:55:01;2.00;;;0.70;;
37777;SDS011;23615;51.506;7.678;2024-03-23T12:57:28;2.85;;;0.85;;
37777;SDS011;23615;51.506;7.678;2024-03-23T12:59:53;2.80;;;0.70;;
37777;SDS011;23615;51.506;7.678;2024-03-23T13:02:21;4.13;;;0.93;;
37777;SDS011;23615;51.506;7.678;2024-03-23T13:04:50;2.05;;;0.50;;
37777;SDS011;23615;51.506;7.678;2024-03-23T13:07:19;1.77;;;0.55;;
37777;SDS011;23615;51.506;7.678;2024-03-23T13:09:46;1.90;;;0.50;;
37777;SDS011;23615;51.506;7.678;2024-03-23T13:12:12;3.50;;;0.60;;
37777;SDS011;23615;51.506;7.678;2024-03-23T13:14:37;1.80;;;0.30;;
37777;SDS011;23615;51.506;7.678;2024-03-23T13:17:06;3.60;;;0.60;;
37777;SDS011;23615;51.506;7.678;2024-03-23T13:19:32;2.70;;;0.50;;
37777;SDS011;23615;51.506;7.678;2024-03-23T13:21:58;4.22;;;0.85;;
37777;SDS011;23615;51.506;7.678;2024-03-23T13:24:24;4.45;;;0.80;;
37777;SDS011;23615;51.506;7.678;2024-03-23T13:26:51;1.08;;;0.38;;
37777;SDS011;23615;51.506;7.678;2024-03-23T13:29:17;3.08;;;0.55;;
37777;SDS011;23615;51.506;7.678;2024-03-23T13:31:44;2.30;;;0.30;;
37777;SDS011;23615;51.506;7.678;2024-03-23T13:34:10;4.22;;;0.65;;
37777;SDS011;23615;51.506;7.678;2024-03-23T13:36:35;2.20;;;0.40;;
37777;SDS011;23615;51.506;7.678;2024-03-23T13:39:01;2.00;;;0.50;;
37777;SDS011;23615;51.506;7.678;2024-03-23T13:41:31;2.80;;;0.50;;
37777;SDS011;23615;51.506;7.678;2024-03-23T13:43:56;3.40;;;0.50;;
37777;SDS011;23615;51.506;7.678;2024-03-23T13:46:21;2.60;;;0.50;;
37777;SDS011;23615;51.506;7.678;2024-03-23T13:48:47;2.63;;;0.70;;
37777;SDS011;23615;51.506;7.678;2024-03-23T13:51:12;2.10;;;0.50;;
37777;SDS011;23615;51.506;7.678;2024-03-23T13:53:38;2.03;;;0.45;;
37777;SDS011;23615;51.506;7.678;2024-03-23T13:56:03;1.83;;;0.50;;
37777;SDS011;23615;51.506;7.678;2024-03-23T13:58:29;3.25;;;0.40;;
37777;SDS011;23615;51.506;7.678;2024-03-23T14:00:56;1.80;;;0.30;;
37777;SDS011;23615;51.506;7.678;2024-03-23T14:03:22;1.57;;;0.30;;
37777;SDS011;23615;51.506;7.678;2024-03-23T14:05:47;2.10;;;0.60;;
37777;SDS011;23615;51.506;7.678;2024-03-23T14:08:13;1.30;;;0.30;;
37777;SDS011;23615;51.506;7.678;2024-03-23T14:10:41;1.37;;;0.90;;
37777;SDS011;23615;51.506;7.678;2024-03-23T14:13:07;1.75;;;0.35;;
37777;SDS011;23615;51.506;7.678;2024-03-23T14:15:32;1.10;;;0.40;;
37777;SDS011;23615;51.506;7.678;2024-03-23T14:17:58;2.40;;;0.57;;
37777;SDS011;23615;51.506;7.678;2024-03-23T14:20:24;2.28;;;0.40;;
37777;SDS011;23615;51.506;7.678;2024-03-23T14:22:50;1.77;;;0.43;;
37777;SDS011;23615;51.506;7.678;2024-03-23T14:25:16;2.57;;;0.30;;
37777;SDS011;23615;51.506;7.678;2024-03-23T14:27:43;2.93;;;0.47;;
37777;SDS011;23615;51.506;7.678;2024-03-23T14:30:10;1.80;;;0.50;;
37777;SDS011;23615;51.506;7.678;2024-03-23T14:32:35;1.10;;;0.60;;
37777;SDS011;23615;51.506;7.678;2024-03-23T14:35:02;1.80;;;0.28;;
37777;SDS011;23615;51.506;7.678;2024-03-23T14:37:28;1.10;;;0.43;;
37777;SDS011;23615;51.506;7.678;2024-03-23T14:39:55;2.40;;;0.60;;
37777;SDS011;23615;51.506;7.678;2024-03-23T14:42:21;2.73;;;0.80;;
37777;SDS011;23615;51.506;7.678;2024-03-23T14:44:46;1.75;;;0.60;;
37777;SDS011;23615;51.506;7.678;2024-03-23T14:47:12;2.47;;;0.60;;
37777;SDS011;23615;51.506;7.678;2024-03-23T14:49:37;2.42;;;0.80;;
37777;SDS011;23615;51.506;7.678;2024-03-23T14:52:03;3.28;;;0.75;;
37777;SDS011;23615;51.506;7.678;2024-03-23T14:54:28;1.90;;;0.40;;
37777;SDS011;23615;51.506;7.678;2024-03-23T14:56:53;2.53;;;0.37;;
37777;SDS011;23615;51.506;7.678;2024-03-23T14:59:19;1.60;;;0.30;;
37777;SDS011;23615;51.506;7.678;2024-03-23T15:01:45;2.03;;;0.73;;
37777;SDS011;23615;51.506;7.678;2024-03-23T15:04:10;2.30;;;0.40;;
37777;SDS011;23615;51.506;7.678;2024-03-23T15:06:36;0.93;;;0.40;;
37777;SDS011;23615;51.506;7.678;2024-03-23T15:09:01;2.20;;;0.40;;
37777;SDS011;23615;51.506;7.678;2024-03-23T15:11:27;4.50;;;0.70;;
37777;SDS011;23615;51.506;7.678;2024-03-23T15:13:52;4.00;;;0.60;;
37777;SDS011;23615;51.506;7.678;2024-03-23T15:16:17;1.80;;;0.40;;
37777;SDS011;23615;51.506;7.678;2024-03-23T15:18:45;2.92;;;0.30;;
37777;SDS011;23615;51.506;7.678;2024-03-23T15:21:10;2.20;;;0.30;;
37777;SDS011;23615;51.506;7.678;2024-03-23T15:23:37;2.33;;;0.28;;
37777;SDS011;23615;51.506;7.678;2024-03-23T15:26:03;3.47;;;0.30;;
37777;SDS011;23615;51.506;7.678;2024-03-23T15:28:30;1.50;;;0.30;;
37777;SDS011;23615;51.506;7.678;2024-03-23T15:31:19;3.42;;;0.45;;
37777;SDS011;23615;51.506;7.678;2024-03-23T15:33:44;2.40;;;0.30;;
37777;SDS011;23615;51.506;7.678;2024-03-23T15:36:10;2.83;;;0.37;;
37777;SDS011;23615;51.506;7.678;2024-03-23T15:38:35;1.67;;;0.30;;
37777;SDS011;23615;51.506;7.678;2024-03-23T15:41:00;2.37;;;0.30;;
37777;SDS011;23615;51.506;7.678;2024-03-23T15:43:26;2.20;;;0.20;;